Time;durP1;ratioP1;P1;durP2;ratioP2;P2;SDS_P1;SDS_P2;PMS_P1;PMS_P2;Temp;Humidity;BMP_temperature;BMP_pressure;BME280_temperature;BME280_humidity;BME280_pressure;Samples;Min_cycle;Max_cycle;Signal;HPM_P1;HPM_P2
2022/05/05 00:00:14;;;;;;;13.90;5.85;;;7.30;99.90;;;;;;5053834;28;20094;-63
2022/05/05 00:02:43;;;;;;;10.43;5.85;;;7.30;99.90;;;;;;5054332;28;20114;-63
2022/05/05 00:05:10;;;;;;;14.73;6.90;;;7.30;99.90;;;;;;5054721;28;20053;-63
2022/05/05 00:07:37;;;;;;;10.80;5.90;;;7.20;99.90;;;;;;5037534;28;20530;-61
2022/05/05 00:14:24;;;;;;;15.48;6.88;;;7.20;99.90;;;;;;5058579;28;20090;-62
2022/05/05 00:20:33;;;;;;;14.48;7.03;;;7.30;99.90;;;;;;5056280;28;20044;-62
2022/05/05 00:22:59;;;;;;;10.40;6.15;;;7.20;99.90;;;;;;5074625;28;20147;-62
2022/05/05 00:25:26;;;;;;;11.50;6.75;;;7.20;99.90;;;;;;5056425;28;20204;-62
2022/05/05 00:27:53;;;;;;;9.95;5.95;;;7.20;99.90;;;;;;5057167;28;20136;-62
2022/05/05 00:30:20;;;;;;;11.30;6.47;;;7.30;99.90;;;;;;5057152;28;20135;-62
2022/05/05 00:32:47;;;;;;;10.30;5.95;;;7.30;99.90;;;;;;5073809;28;20083;-62
2022/05/05 00:35:13;;;;;;;9.27;5.72;;;7.30;99.90;;;;;;5056898;28;20134;-62
2022/05/05 00:37:41;;;;;;;10.60;5.28;;;7.30;99.90;;;;;;5074194;28;20136;-61
2022/05/05 00:40:09;;;;;;;11.73;5.13;;;7.30;99.90;;;;;;5073591;28;20136;-62
2022/05/05 00:42:36;;;;;;;8.90;5.45;;;7.30;99.90;;;;;;5074630;28;20472;-62
2022/05/05 00:45:04;;;;;;;10.20;5.72;;;7.30;99.90;;;;;;5052942;28;20055;-62
2022/05/05 00:47:31;;;;;;;10.95;5.72;;;7.40;99.90;;;;;;5053733;28;20049;-62
2022/05/05 00:49:59;;;;;;;8.88;4.85;;;7.40;99.90;;;;;;5054483;28;20132;-62
2022/05/05 00:52:26;;;;;;;7.97;5.40;;;7.40;99.90;;;;;;5036755;28;20045;-63
2022/05/05 00:54:56;;;;;;;11.90;5.15;;;7.40;99.90;;;;;;5053471;28;20115;-61
2022/05/05 00:57:23;;;;;;;9.23;4.73;;;7.40;99.90;;;;;;5036719;28;20140;-62
2022/05/05 00:59:51;;;;;;;10.00;5.13;;;7.40;99.90;;;;;;5067207;28;20132;-63
2022/05/05 01:02:18;;;;;;;10.57;5.68;;;7.50;99.90;;;;;;5055168;28;20144;-62
2022/05/05 01:04:46;;;;;;;11.20;5.13;;;7.40;99.90;;;;;;5052676;28;20080;-63
2022/05/05 01:07:13;;;;;;;9.07;5.18;;;7.70;99.90;;;;;;5036174;28;20056;-62
2022/05/05 01:09:41;;;;;;;13.35;4.95;;;7.50;99.90;;;;;;5036007;28;20139;-62
2022/05/05 01:12:11;;;;;;;8.63;5.00;;;7.50;99.90;;;;;;5054026;28;20052;-62
2022/05/05 01:14:38;;;;;;;13.97;5.13;;;7.50;99.90;;;;;;5038772;28;20045;-63
2022/05/05 01:17:07;;;;;;;11.68;6.18;;;8.60;99.90;;;;;;5036276;28;20131;-63
2022/05/05 01:19:36;;;;;;;7.57;4.75;;;7.60;99.90;;;;;;5036126;28;20049;-62
2022/05/05 01:22:05;;;;;;;11.88;5.35;;;7.60;99.90;;;;;;5052821;28;20520;-62
2022/05/05 01:30:18;;;;;;;9.15;4.68;;;7.60;99.90;;;;;;4989320;28;20061;-62
2022/05/05 01:32:44;;;;;;;10.93;5.47;;;7.60;99.90;;;;;;5042797;28;20076;-62
2022/05/05 01:35:11;;;;;;;11.25;4.63;;;7.60;99.90;;;;;;5053018;28;20049;-62
2022/05/05 01:37:39;;;;;;;10.73;4.80;;;7.70;99.90;;;;;;5034855;28;20135;-62
2022/05/05 01:40:07;;;;;;;13.88;5.53;;;7.70;99.90;;;;;;5035724;28;20055;-62
2022/05/05 01:42:34;;;;;;;10.68;5.60;;;7.70;99.90;;;;;;5067467;28;20080;-62
2022/05/05 01:45:01;;;;;;;9.20;5.05;;;7.70;99.90;;;;;;5055517;28;20135;-62
2022/05/05 01:47:27;;;;;;;7.57;4.70;;;7.70;99.90;;;;;;5073591;28;20131;-62
2022/05/05 01:49:58;;;;;;;11.05;4.88;;;7.70;99.90;;;;;;5072609;28;20478;-63
2022/05/05 01:52:25;;;;;;;12.07;5.03;;;7.70;99.90;;;;;;5073404;28;20127;-63
2022/05/05 01:54:53;;;;;;;11.32;5.28;;;7.70;99.90;;;;;;5073134;28;20136;-63
2022/05/05 01:57:20;;;;;;;13.32;6.03;;;7.80;99.90;;;;;;5050891;28;20048;-63
2022/05/05 01:59:46;;;;;;;11.55;5.53;;;7.80;99.90;;;;;;5035581;28;20152;-62
2022/05/05 02:02:13;;;;;;;8.38;5.07;;;7.80;99.90;;;;;;5052802;28;20067;-62
2022/05/05 02:04:40;;;;;;;10.15;5.43;;;7.80;99.90;;;;;;5052576;28;20084;-63
2022/05/05 02:07:06;;;;;;;8.80;4.95;;;7.70;99.90;;;;;;5043882;28;20127;-62
2022/05/05 02:09:33;;;;;;;12.32;5.40;;;7.70;99.90;;;;;;5054988;28;20345;-62
2022/05/05 02:12:02;;;;;;;10.38;5.38;;;7.70;99.90;;;;;;5072213;28;20567;-63
2022/05/05 02:14:29;;;;;;;13.10;4.60;;;7.70;99.90;;;;;;5054906;28;20504;-62
2022/05/05 02:16:55;;;;;;;10.00;5.22;;;7.70;99.90;;;;;;5073037;28;20131;-63
2022/05/05 02:19:22;;;;;;;11.38;4.72;;;7.60;99.90;;;;;;5054352;28;20131;-62
2022/05/05 02:21:49;;;;;;;10.43;5.20;;;7.60;99.90;;;;;;5072930;28;20127;-62
2022/05/05 02:24:16;;;;;;;9.63;5.03;;;7.60;99.90;;;;;;5072257;28;20135;-63
2022/05/05 02:26:42;;;;;;;12.57;4.95;;;7.50;99.90;;;;;;5053985;28;20135;-62
2022/05/05 02:29:10;;;;;;;8.00;5.30;;;7.50;99.90;;;;;;5054886;28;20135;-62
2022/05/05 02:31:37;;;;;;;10.40;4.55;;;7.50;99.90;;;;;;5054715;28;20115;-62
2022/05/05 02:34:08;;;;;;;8.90;4.78;;;7.40;99.90;;;;;;5054030;28;20080;-62
2022/05/05 02:39:19;;;;;;;9.55;4.93;;;7.40;99.90;;;;;;5071643;28;20123;-62
2022/05/05 02:41:46;;;;;;;12.07;5.47;;;7.40;99.90;;;;;;5072827;28;20145;-62
2022/05/05 02:44:14;;;;;;;9.07;5.13;;;7.30;99.90;;;;;;5054581;28;20564;-62
2022/05/05 02:46:40;;;;;;;16.52;5.75;;;7.30;99.90;;;;;;5071931;28;20135;-62
2022/05/05 02:49:07;;;;;;;8.88;4.80;;;7.30;99.90;;;;;;5054903;28;20175;-62
2022/05/05 02:51:34;;;;;;;11.80;5.40;;;7.30;99.90;;;;;;5072594;28;20549;-62
2022/05/05 02:56:45;;;;;;;10.75;5.45;;;7.30;99.90;;;;;;5052784;28;20123;-62
2022/05/05 02:59:12;;;;;;;11.35;6.00;;;7.20;99.90;;;;;;5035084;28;20135;-62
2022/05/05 03:01:40;;;;;;;7.40;5.07;;;7.20;99.90;;;;;;5051426;28;20140;-62
2022/05/05 03:04:06;;;;;;;9.13;5.32;;;7.20;99.90;;;;;;5034694;28;20139;-62
2022/05/05 03:06:33;;;;;;;11.70;5.43;;;7.30;99.90;;;;;;5034610;28;20461;-63
2022/05/05 03:09:00;;;;;;;14.02;5.50;;;7.20;99.90;;;;;;5059456;28;20489;-63
2022/05/05 03:11:27;;;;;;;9.00;5.60;;;7.20;99.90;;;;;;5072642;28;20045;-62
2022/05/05 03:13:53;;;;;;;8.52;5.43;;;7.30;99.90;;;;;;5054356;28;20150;-62
2022/05/05 03:16:20;;;;;;;10.93;4.72;;;7.30;99.90;;;;;;5053753;28;20155;-63
2022/05/05 03:18:48;;;;;;;9.23;5.35;;;7.40;99.90;;;;;;5072570;28;20132;-63
2022/05/05 03:21:15;;;;;;;10.15;4.82;;;7.40;99.90;;;;;;5071654;28;20128;-62
2022/05/05 03:23:42;;;;;;;7.63;4.90;;;7.40;99.90;;;;;;5053919;28;20423;-62
2022/05/05 03:26:08;;;;;;;8.30;5.85;;;7.40;99.90;;;;;;5072505;28;20583;-62
2022/05/05 03:28:35;;;;;;;10.25;5.72;;;7.40;99.90;;;;;;5071658;28;20471;-62
2022/05/05 03:31:02;;;;;;;8.00;5.35;;;7.40;99.90;;;;;;5054612;28;20135;-62
2022/05/05 03:33:29;;;;;;;8.65;5.43;;;7.40;99.90;;;;;;5054232;28;20080;-62
2022/05/05 03:35:57;;;;;;;12.32;5.75;;;7.40;99.90;;;;;;5071433;28;20048;-61
2022/05/05 03:38:24;;;;;;;8.25;5.45;;;7.30;99.90;;;;;;5071983;28;20058;-62
2022/05/05 03:40:52;;;;;;;8.63;5.38;;;7.30;99.90;;;;;;5057165;28;20060;-62
2022/05/05 03:43:19;;;;;;;9.05;5.20;;;7.30;99.90;;;;;;5056727;28;20076;-62
2022/05/05 03:45:45;;;;;;;9.93;5.03;;;7.30;99.90;;;;;;5057829;28;20152;-62
2022/05/05 03:48:12;;;;;;;12.60;5.88;;;7.30;99.90;;;;;;5057948;28;20048;-62
2022/05/05 03:50:39;;;;;;;12.25;5.70;;;7.30;99.90;;;;;;5074571;28;20084;-62
2022/05/05 03:53:07;;;;;;;12.32;5.63;;;7.20;99.90;;;;;;5057462;28;20049;-63
2022/05/05 03:55:34;;;;;;;9.60;5.15;;;7.20;99.90;;;;;;5075399;28;20135;-63
2022/05/05 03:58:00;;;;;;;9.95;5.47;;;7.20;99.90;;;;;;5056730;28;20131;-63
2022/05/05 04:00:28;;;;;;;13.25;6.18;;;7.20;99.90;;;;;;5057257;28;20128;-62
2022/05/05 04:05:39;;;;;;;13.85;5.88;;;7.20;99.90;;;;;;5057070;28;20561;-62
2022/05/05 04:08:08;;;;;;;11.88;6.20;;;7.20;99.90;;;;;;5075331;28;20123;-63
2022/05/05 04:10:34;;;;;;;9.02;6.70;;;7.20;99.90;;;;;;5056623;28;20064;-63
2022/05/05 04:13:01;;;;;;;12.35;6.50;;;7.20;99.90;;;;;;5057242;28;20139;-63
2022/05/05 04:15:29;;;;;;;10.38;7.03;;;7.30;99.90;;;;;;5075381;28;20131;-63
2022/05/05 04:17:56;;;;;;;14.55;7.10;;;7.30;99.90;;;;;;5074375;28;20056;-63
2022/05/05 04:20:23;;;;;;;12.88;6.80;;;7.30;99.90;;;;;;5056852;28;20484;-62
2022/05/05 04:22:50;;;;;;;12.15;7.15;;;7.30;99.90;;;;;;5057156;28;20404;-62
2022/05/05 04:25:18;;;;;;;11.60;7.35;;;7.30;99.90;;;;;;5056013;28;20420;-63
2022/05/05 04:27:46;;;;;;;13.93;7.47;;;7.30;99.90;;;;;;5074879;28;20123;-62
2022/05/05 04:30:14;;;;;;;12.20;6.45;;;7.30;99.90;;;;;;5058689;28;20136;-63
2022/05/05 04:32:41;;;;;;;10.55;5.47;;;7.80;99.90;;;;;;5053927;28;20041;-62
2022/05/05 04:35:09;;;;;;;11.65;6.47;;;8.30;99.90;;;;;;5035173;28;20111;-62
2022/05/05 04:37:36;;;;;;;12.50;6.72;;;8.50;99.90;;;;;;5035010;28;20124;-63
2022/05/05 04:40:03;;;;;;;12.23;6.85;;;8.40;99.90;;;;;;5053671;28;20049;-63
2022/05/05 04:42:31;;;;;;;11.40;6.65;;;8.50;99.90;;;;;;5052665;28;20131;-63
2022/05/05 04:44:58;;;;;;;8.27;5.78;;;8.60;99.90;;;;;;5054840;28;20085;-62
2022/05/05 04:47:25;;;;;;;10.05;6.00;;;8.90;99.90;;;;;;5052499;28;20048;-62
2022/05/05 04:49:53;;;;;;;13.02;6.18;;;9.20;99.90;;;;;;5035818;28;20052;-62
2022/05/05 04:52:19;;;;;;;13.38;6.85;;;9.20;99.90;;;;;;5052433;28;20076;-63
2022/05/05 04:54:46;;;;;;;11.20;5.85;;;9.10;99.90;;;;;;5033906;28;20140;-62
2022/05/05 04:57:13;;;;;;;14.98;6.72;;;9.30;99.90;;;;;;5036370;28;20137;-62
2022/05/05 04:59:41;;;;;;;12.45;5.68;;;9.90;99.90;;;;;;5034545;28;20408;-63
2022/05/05 05:02:08;;;;;;;10.32;6.38;;;9.60;99.90;;;;;;5051905;28;20497;-62
2022/05/05 05:04:35;;;;;;;10.80;5.85;;;9.60;99.90;;;;;;5051995;28;20485;-62
2022/05/05 05:07:02;;;;;;;9.32;6.22;;;9.40;99.90;;;;;;5051782;28;20120;-61
2022/05/05 05:09:28;;;;;;;8.27;5.70;;;9.30;99.90;;;;;;5052738;28;20052;-62
2022/05/05 05:11:55;;;;;;;11.88;6.28;;;9.20;99.90;;;;;;5053857;28;20447;-63
2022/05/05 05:14:22;;;;;;;13.10;6.68;;;9.10;99.90;;;;;;5033250;28;20144;-62
2022/05/05 05:16:50;;;;;;;13.73;5.82;;;9.30;99.90;;;;;;5039137;28;20139;-62
2022/05/05 05:19:17;;;;;;;10.27;5.53;;;9.30;99.90;;;;;;5038635;28;20085;-62
2022/05/05 05:21:43;;;;;;;11.15;5.07;;;9.80;99.90;;;;;;5051466;28;20063;-63
2022/05/05 05:24:10;;;;;;;12.98;5.55;;;9.80;99.90;;;;;;5034116;28;20055;-62
2022/05/05 05:26:37;;;;;;;8.60;5.18;;;9.80;99.90;;;;;;5034806;28;20140;-61
2022/05/05 05:29:04;;;;;;;7.97;5.50;;;9.70;99.90;;;;;;5051723;28;20136;-62
2022/05/05 05:31:31;;;;;;;11.90;5.25;;;9.70;99.90;;;;;;5037050;28;20540;-63
2022/05/05 05:33:59;;;;;;;7.00;5.22;;;9.70;99.90;;;;;;5034194;28;20053;-62
2022/05/05 05:36:26;;;;;;;9.43;5.50;;;9.70;99.90;;;;;;5033398;28;20049;-62
2022/05/05 05:38:53;;;;;;;10.57;6.25;;;9.90;99.90;;;;;;5052695;28;20183;-62
2022/05/05 05:41:19;;;;;;;12.00;6.60;;;10.10;99.90;;;;;;5033634;28;20165;-62
2022/05/05 05:43:46;;;;;;;10.13;4.95;;;10.20;99.90;;;;;;5012120;28;20052;-62
2022/05/05 05:46:13;;;;;;;12.32;5.65;;;10.30;99.90;;;;;;5041624;28;20135;-62
2022/05/05 05:48:40;;;;;;;11.40;5.45;;;10.50;99.90;;;;;;5042970;28;20044;-62
2022/05/05 05:51:08;;;;;;;9.75;5.25;;;10.30;99.90;;;;;;5053885;28;20148;-61
2022/05/05 05:53:35;;;;;;;8.32;5.30;;;10.10;99.90;;;;;;5050097;28;20056;-62
2022/05/05 05:56:02;;;;;;;13.65;5.78;;;10.00;99.90;;;;;;5032523;28;20048;-61
2022/05/05 05:58:29;;;;;;;13.77;5.63;;;9.90;99.90;;;;;;5036693;28;20546;-62
2022/05/05 06:00:55;;;;;;;13.30;5.68;;;9.90;99.90;;;;;;5047007;28;20076;-62
2022/05/05 06:06:08;;;;;;;11.60;5.70;;;9.90;99.90;;;;;;5064730;28;20041;-62
2022/05/05 06:08:34;;;;;;;11.48;5.32;;;9.90;99.90;;;;;;5045457;28;20045;-62
2022/05/05 06:11:01;;;;;;;9.25;5.93;;;9.90;99.90;;;;;;5052496;28;20048;-62
2022/05/05 06:13:28;;;;;;;7.80;5.00;;;10.10;99.90;;;;;;5054247;28;20123;-62
2022/05/05 06:15:55;;;;;;;10.55;5.15;;;10.10;99.90;;;;;;5052702;28;20119;-62
2022/05/05 06:18:22;;;;;;;12.15;5.70;;;10.20;99.90;;;;;;5079012;28;20052;-61
2022/05/05 06:20:49;;;;;;;13.07;5.95;;;10.30;99.90;;;;;;5054459;28;20139;-62
2022/05/05 06:23:17;;;;;;;10.20;5.43;;;10.30;99.90;;;;;;5049548;28;20059;-62
2022/05/05 06:25:44;;;;;;;10.45;6.20;;;10.40;99.90;;;;;;5051718;28;20059;-62
2022/05/05 06:28:11;;;;;;;12.93;5.85;;;10.40;99.90;;;;;;5071074;28;20136;-62
2022/05/05 06:30:38;;;;;;;9.70;5.57;;;10.50;99.90;;;;;;5053294;28;20554;-62
2022/05/05 06:33:05;;;;;;;11.88;5.85;;;10.60;99.90;;;;;;5052972;28;20576;-62
2022/05/05 06:35:31;;;;;;;10.07;6.38;;;10.60;99.90;;;;;;5071986;28;20135;-62
2022/05/05 06:37:58;;;;;;;11.75;6.72;;;10.60;99.90;;;;;;5072076;28;20044;-62
2022/05/05 06:40:26;;;;;;;10.88;6.35;;;10.70;99.90;;;;;;5071623;28;20131;-62
2022/05/05 06:42:53;;;;;;;13.43;6.22;;;10.80;99.90;;;;;;5070267;28;20526;-62
2022/05/05 06:45:20;;;;;;;13.50;6.88;;;10.80;99.90;;;;;;5053350;28;20135;-62
2022/05/05 06:47:47;;;;;;;10.48;6.30;;;10.90;99.90;;;;;;5052986;28;20047;-61
2022/05/05 06:50:15;;;;;;;14.70;6.93;;;10.90;99.90;;;;;;5071350;28;20131;-62
2022/05/05 06:52:41;;;;;;;11.50;6.68;;;10.90;99.90;;;;;;5086262;28;20048;-61
2022/05/05 06:55:09;;;;;;;9.80;6.75;;;11.00;99.90;;;;;;5073502;28;20080;-61
2022/05/05 06:57:37;;;;;;;11.80;6.97;;;11.00;99.90;;;;;;5065066;28;20552;-61
2022/05/05 07:00:05;;;;;;;15.45;7.88;;;11.10;99.90;;;;;;5053591;28;20136;-62
2022/05/05 07:02:31;;;;;;;9.18;6.90;;;11.10;99.90;;;;;;5070853;28;20563;-62
2022/05/05 07:07:42;;;;;;;13.98;7.78;;;11.30;99.90;;;;;;5071004;28;20048;-62
2022/05/05 07:12:54;;;;;;;13.13;7.10;;;11.40;99.90;;;;;;5053601;28;20717;-62
2022/05/05 07:15:21;;;;;;;16.45;7.10;;;11.50;99.90;;;;;;5074982;28;20127;-61
2022/05/05 07:17:48;;;;;;;12.05;6.63;;;11.60;99.90;;;;;;5057471;28;20127;-63
2022/05/05 07:20:15;;;;;;;10.65;6.80;;;11.80;99.90;;;;;;5073913;28;20056;-62
2022/05/05 07:22:42;;;;;;;9.40;6.55;;;11.90;99.90;;;;;;5057133;28;20477;-62
2022/05/05 07:25:09;;;;;;;17.73;7.72;;;12.00;99.90;;;;;;5075390;28;20551;-61
2022/05/05 07:27:36;;;;;;;12.30;6.80;;;12.10;99.90;;;;;;5074856;28;20111;-62
2022/05/05 07:30:05;;;;;;;12.98;6.22;;;12.20;99.90;;;;;;5056042;28;20529;-62
2022/05/05 07:32:32;;;;;;;11.93;6.65;;;12.30;99.90;;;;;;5056607;28;20411;-61
2022/05/05 07:34:59;;;;;;;13.93;6.88;;;12.40;99.90;;;;;;5074494;28;20555;-62
2022/05/05 07:37:26;;;;;;;12.35;6.57;;;12.40;99.90;;;;;;5057243;28;20055;-63
2022/05/05 07:39:52;;;;;;;13.98;7.03;;;12.50;99.90;;;;;;5075304;28;20132;-63
2022/05/05 07:42:19;;;;;;;11.18;6.38;;;12.60;99.90;;;;;;5056805;28;20514;-61
2022/05/05 07:44:46;;;;;;;13.93;6.72;;;12.80;99.90;;;;;;5073538;28;20048;-63
2022/05/05 07:47:14;;;;;;;11.93;6.03;;;12.90;99.90;;;;;;5072821;28;20473;-63
2022/05/05 07:49:41;;;;;;;11.00;5.75;;;12.90;99.90;;;;;;5072950;28;20052;-63
2022/05/05 07:52:07;;;;;;;11.88;6.22;;;13.10;99.90;;;;;;5075805;28;20137;-62
2022/05/05 07:54:38;;;;;;;12.68;7.00;;;13.40;99.90;;;;;;5074188;28;20128;-63
2022/05/05 07:57:08;;;;;;;9.73;6.57;;;13.50;99.90;;;;;;5074373;28;20607;-63
2022/05/05 07:59:35;;;;;;;13.90;6.35;;;13.60;99.90;;;;;;5057125;28;20056;-63
2022/05/05 08:02:03;;;;;;;12.45;6.32;;;13.90;99.90;;;;;;5056831;28;20163;-63
2022/05/05 08:04:31;;;;;;;10.07;5.63;;;14.10;99.90;;;;;;5074793;28;20076;-63
2022/05/05 08:06:59;;;;;;;12.25;4.85;;;14.20;99.90;;;;;;5057004;28;20135;-63
2022/05/05 08:09:26;;;;;;;12.48;6.15;;;14.30;99.90;;;;;;5074594;28;20094;-63
2022/05/05 08:11:52;;;;;;;7.47;4.65;;;14.40;99.90;;;;;;5056193;28;20095;-63
2022/05/05 08:14:19;;;;;;;12.23;5.47;;;14.70;99.90;;;;;;5074469;28;20040;-63
2022/05/05 08:16:46;;;;;;;12.02;5.07;;;14.80;99.90;;;;;;5073887;28;20131;-63
2022/05/05 08:19:13;;;;;;;11.27;5.15;;;14.90;99.90;;;;;;5074362;28;20098;-63
2022/05/05 08:21:41;;;;;;;12.95;5.40;;;15.30;99.90;;;;;;5074060;28;20127;-63
2022/05/05 08:29:37;;;;;;;8.65;4.65;;;15.90;99.90;;;;;;5073945;28;20052;-62
2022/05/05 08:32:05;;;;;;;10.15;5.53;;;15.90;99.90;;;;;;5071989;28;20049;-62
2022/05/05 08:34:31;;;;;;;11.85;5.07;;;16.00;99.90;;;;;;5055899;28;20052;-62
2022/05/05 08:37:00;;;;;;;10.38;4.28;;;16.20;99.50;;;;;;5073665;28;20135;-62
2022/05/05 08:39:26;;;;;;;11.20;4.88;;;16.40;98.70;;;;;;5051886;28;20069;-62
2022/05/05 08:41:54;;;;;;;8.07;4.75;;;16.40;98.40;;;;;;5040412;28;20155;-63
2022/05/05 08:44:22;;;;;;;10.63;4.55;;;16.50;98.10;;;;;;5072794;28;20076;-63
2022/05/05 08:46:50;;;;;;;8.05;4.93;;;16.60;98.00;;;;;;5054727;28;20052;-66
2022/05/05 08:49:22;;;;;;;11.32;4.88;;;16.90;98.00;;;;;;5056219;28;20446;-63
2022/05/05 08:51:53;;;;;;;7.97;4.78;;;17.20;97.40;;;;;;5062702;28;20048;-62
2022/05/05 08:54:22;;;;;;;;;;;17.40;96.50;;;;;;5064047;28;20135;-63
2022/05/05 08:56:50;;;;;;;12.50;5.13;;;17.70;95.50;;;;;;5055936;28;20011;-63
2022/05/05 08:59:17;;;;;;;11.60;5.25;;;18.20;96.60;;;;;;5054083;28;20049;-63
2022/05/05 09:01:44;;;;;;;10.35;4.78;;;18.80;95.80;;;;;;5073225;28;20128;-62
2022/05/05 09:04:12;;;;;;;8.93;5.10;;;19.20;94.70;;;;;;5072851;28;20434;-63
2022/05/05 09:06:43;;;;;;;10.45;5.45;;;19.50;93.80;;;;;;5054832;28;20567;-63
2022/05/05 09:09:31;;;;;;;7.60;4.60;;;19.80;92.80;;;;;;5055794;28;20491;-63
2022/05/05 09:12:15;;;;;;;10.65;4.25;;;20.20;91.10;;;;;;5073191;28;20048;-63
2022/05/05 09:14:44;;;;;;;8.43;4.60;;;20.80;90.20;;;;;;5072842;28;20450;-63
2022/05/05 09:17:16;;;;;;;8.80;4.45;;;20.80;90.40;;;;;;5055254;28;20066;-63
2022/05/05 09:19:44;;;;;;;10.63;4.05;;;21.10;90.30;;;;;;5054601;28;20135;-62
2022/05/05 09:22:12;;;;;;;8.50;4.50;;;21.60;89.10;;;;;;5055158;28;20140;-63
2022/05/05 09:24:44;;;;;;;10.18;4.65;;;21.90;87.40;;;;;;5073059;28;20484;-63
2022/05/05 09:27:19;;;;;;;13.23;5.82;;;22.10;84.60;;;;;;5072712;28;20490;-64
2022/05/05 09:30:01;;;;;;;9.98;4.80;;;22.30;80.60;;;;;;5054766;28;20060;-64
2022/05/05 09:32:29;;;;;;;6.25;4.45;;;22.20;82.60;;;;;;5072999;28;20051;-64
2022/05/05 09:35:02;;;;;;;7.60;4.95;;;22.10;83.50;;;;;;5054653;28;20051;-64
2022/05/05 09:37:30;;;;;;;7.10;5.00;;;22.20;82.60;;;;;;5073624;28;20048;-64
2022/05/05 09:39:59;;;;;;;9.85;5.18;;;22.10;82.10;;;;;;5072469;28;20135;-64
2022/05/05 09:42:40;;;;;;;7.27;5.40;;;22.40;81.30;;;;;;5054858;28;20140;-63
2022/05/05 09:48:37;;;;;;;10.00;5.32;;;22.30;79.30;;;;;;5071503;28;20049;-63
2022/05/05 09:51:29;;;;;;;8.45;5.95;;;22.20;80.30;;;;;;5071720;28;20127;-64
2022/05/05 09:59:52;;;;;;;8.25;5.10;;;22.60;78.50;;;;;;5054585;28;20056;-64
2022/05/05 10:05:17;;;;;;;9.20;5.00;;;22.70;79.10;;;;;;5072829;28;20056;-64
2022/05/05 10:07:46;;;;;;;8.38;5.10;;;22.80;78.70;;;;;;5071922;28;20131;-64
2022/05/05 10:10:16;;;;;;;8.80;4.72;;;22.50;78.60;;;;;;5064431;28;20119;-63
2022/05/05 10:12:45;;;;;;;11.25;5.20;;;22.50;78.00;;;;;;5050459;28;20056;-63
2022/05/05 10:15:12;;;;;;;10.02;5.05;;;22.40;78.30;;;;;;5052739;28;20408;-63
2022/05/05 10:17:40;;;;;;;8.07;4.45;;;22.40;78.10;;;;;;5037479;28;20477;-63
2022/05/05 10:20:10;;;;;;;8.50;5.43;;;22.50;78.20;;;;;;5063198;28;20055;-63
2022/05/05 10:22:42;;;;;;;7.70;5.22;;;22.70;77.90;;;;;;5051850;28;20091;-63
2022/05/05 10:25:14;;;;;;;12.27;5.63;;;22.70;77.70;;;;;;5070421;28;20165;-63
2022/05/05 10:27:46;;;;;;;6.72;4.95;;;23.00;76.60;;;;;;5042627;28;20562;-63
2022/05/05 10:30:17;;;;;;;7.20;5.00;;;23.00;76.70;;;;;;5050577;28;20045;-63
2022/05/05 10:32:44;;;;;;;7.15;4.68;;;23.30;76.30;;;;;;5049084;28;20412;-64
2022/05/05 10:35:23;;;;;;;7.85;5.07;;;23.80;76.60;;;;;;5051176;28;20128;-63
2022/05/05 10:37:50;;;;;;;7.53;4.53;;;24.10;73.90;;;;;;5059193;28;20136;-64
2022/05/05 10:40:17;;;;;;;6.28;4.20;;;23.90;74.80;;;;;;5032852;28;20136;-65
2022/05/05 10:42:46;;;;;;;7.45;4.70;;;24.10;74.40;;;;;;5051773;28;20088;-63
2022/05/05 10:45:15;;;;;;;5.93;4.40;;;24.20;73.90;;;;;;5034879;28;20053;-63
2022/05/05 10:48:28;;;;;;;8.52;5.20;;;24.60;73.20;;;;;;5051912;28;20412;-63
2022/05/05 10:51:07;;;;;;;8.13;5.57;;;24.50;72.40;;;;;;5054410;28;20103;-63
2022/05/05 10:53:37;;;;;;;6.88;4.95;;;24.60;71.70;;;;;;5055107;28;20106;-62
2022/05/05 10:56:06;;;;;;;10.23;5.10;;;24.60;72.40;;;;;;5049802;28;20052;-62
2022/05/05 10:59:16;;;;;;;9.90;5.53;;;24.50;72.40;;;;;;5015199;28;20052;-63
2022/05/05 11:02:01;;;;;;;9.68;5.15;;;25.00;70.90;;;;;;5054552;28;20057;-63
2022/05/05 11:04:30;;;;;;;9.55;5.53;;;24.80;71.70;;;;;;5063675;28;20044;-63
2022/05/05 11:07:25;;;;;;;8.68;5.28;;;24.70;72.10;;;;;;5057117;28;20102;-63
2022/05/05 11:09:51;;;;;;;7.93;5.10;;;24.90;71.60;;;;;;5075500;28;20360;-64
2022/05/05 11:12:19;;;;;;;7.90;5.47;;;24.90;71.90;;;;;;5075573;28;20084;-63
2022/05/05 11:23:45;;;;;;;9.48;6.25;;;24.30;71.70;;;;;;4996475;28;20529;-63
2022/05/05 11:26:14;;;;;;;8.15;5.50;;;24.40;71.50;;;;;;5060571;28;20136;-63
2022/05/05 11:28:41;;;;;;;8.63;6.72;;;24.40;72.70;;;;;;5075162;28;20128;-64
2022/05/05 11:31:19;;;;;;;9.77;5.95;;;24.30;73.60;;;;;;5057926;28;20136;-64
2022/05/05 11:33:55;;;;;;;9.30;5.57;;;24.40;72.60;;;;;;5075002;28;20049;-64
2022/05/05 11:36:26;;;;;;;9.35;5.88;;;24.10;72.40;;;;;;5076012;28;20477;-64
2022/05/05 11:38:53;;;;;;;8.82;5.63;;;24.50;72.80;;;;;;5057337;28;20091;-64
2022/05/05 11:41:20;;;;;;;11.25;6.30;;;24.40;73.00;;;;;;5074969;28;20123;-64
2022/05/05 11:46:32;;;;;;;8.80;6.15;;;24.50;72.00;;;;;;5057173;28;20048;-64
2022/05/05 11:49:00;;;;;;;10.40;6.60;;;24.70;72.00;;;;;;5056831;28;20135;-63
2022/05/05 11:51:28;;;;;;;8.00;5.95;;;24.90;71.70;;;;;;5059244;28;20083;-64
2022/05/05 11:54:00;;;;;;;7.80;6.57;;;25.10;71.30;;;;;;5056757;28;20091;-64
2022/05/05 11:56:28;;;;;;;8.32;5.78;;;25.40;70.60;;;;;;5074813;28;20492;-63
2022/05/05 12:01:54;;;;;;;10.98;6.50;;;26.00;71.20;;;;;;5031365;28;20536;-64
2022/05/05 12:04:22;;;;;;;6.82;5.72;;;26.30;70.70;;;;;;5016632;28;20056;-64
2022/05/05 12:06:49;;;;;;;11.40;6.30;;;26.60;70.50;;;;;;5051366;28;20144;-64
2022/05/05 12:09:16;;;;;;;10.65;5.90;;;26.60;69.20;;;;;;5074841;28;20056;-64
2022/05/05 12:11:43;;;;;;;8.13;5.68;;;26.50;68.60;;;;;;5074835;28;20049;-64
2022/05/05 12:14:11;;;;;;;7.55;5.63;;;26.40;68.20;;;;;;5056847;28;20040;-65
2022/05/05 12:16:39;;;;;;;7.20;5.95;;;26.40;68.10;;;;;;5056618;28;20111;-64
2022/05/05 12:19:13;;;;;;;8.95;5.20;;;26.70;67.60;;;;;;5056891;28;20049;-65
2022/05/05 12:21:52;;;;;;;8.07;5.60;;;26.60;67.00;;;;;;5074342;28;20468;-64
2022/05/05 12:24:22;;;;;;;8.57;5.60;;;26.70;66.30;;;;;;5056580;28;20059;-64
2022/05/05 12:26:49;;;;;;;11.90;6.85;;;26.30;67.00;;;;;;5055207;28;20107;-64
2022/05/05 12:29:18;;;;;;;9.95;6.03;;;26.30;67.40;;;;;;5074269;28;20052;-64
2022/05/05 12:31:53;;;;;;;8.45;5.70;;;26.50;66.90;;;;;;5056190;28;20123;-64
2022/05/05 12:34:25;;;;;;;9.90;4.65;;;26.40;66.80;;;;;;5054951;28;20095;-64
2022/05/05 12:37:09;;;;;;;7.32;4.88;;;26.80;67.50;;;;;;5073436;28;20056;-64
2022/05/05 12:39:52;;;;;;;7.32;4.88;;;27.90;66.70;;;;;;5071793;28;20083;-64
2022/05/05 12:42:20;;;;;;;7.05;4.32;;;28.60;65.50;;;;;;5074280;28;20084;-64
2022/05/05 12:44:49;;;;;;;7.47;5.22;;;29.00;66.10;;;;;;5054259;28;20049;-65
2022/05/05 12:47:21;;;;;;;6.38;4.60;;;28.40;64.20;;;;;;5055747;28;20101;-64
2022/05/05 12:49:48;;;;;;;6.90;4.55;;;28.20;64.70;;;;;;5072134;28;20052;-64
2022/05/05 13:00:42;;;;;;;10.52;5.63;;;26.80;64.90;;;;;;5055268;28;20048;-64
2022/05/05 13:03:10;;;;;;;8.18;5.10;;;26.70;64.90;;;;;;5073044;28;20098;-64
2022/05/05 13:05:37;;;;;;;6.70;4.88;;;26.60;64.30;;;;;;5054625;28;20055;-64
2022/05/05 13:08:05;;;;;;;9.85;4.88;;;26.90;64.00;;;;;;5073639;28;20560;-64
2022/05/05 13:10:32;;;;;;;6.28;5.07;;;26.20;63.90;;;;;;5055932;28;20101;-64
2022/05/05 13:12:59;;;;;;;8.85;5.40;;;26.30;64.40;;;;;;5055302;28;20510;-64
2022/05/05 13:15:26;;;;;;;8.60;5.55;;;26.30;64.60;;;;;;5055582;28;20040;-65
2022/05/05 13:17:53;;;;;;;8.05;5.60;;;26.60;64.50;;;;;;5073058;28;20458;-65
2022/05/05 13:20:20;;;;;;;8.13;5.00;;;26.60;64.00;;;;;;5072953;28;20098;-64
2022/05/05 13:22:47;;;;;;;6.38;5.10;;;26.70;64.00;;;;;;5073399;28;20117;-64
2022/05/05 13:25:15;;;;;;;9.43;5.85;;;26.70;64.00;;;;;;5055460;28;20056;-64
2022/05/05 13:27:42;;;;;;;7.93;5.20;;;26.30;63.80;;;;;;5055207;28;20101;-64
2022/05/05 13:30:10;;;;;;;10.45;5.97;;;26.30;63.70;;;;;;5055876;28;20109;-64
2022/05/05 13:32:37;;;;;;;8.32;5.50;;;26.00;65.10;;;;;;5073439;28;20148;-63
2022/05/05 13:35:04;;;;;;;8.30;5.20;;;25.80;64.50;;;;;;5072219;28;20106;-64
2022/05/05 13:37:31;;;;;;;9.05;5.47;;;25.80;64.90;;;;;;5055224;28;20056;-63
2022/05/05 13:39:58;;;;;;;10.23;5.60;;;26.00;64.40;;;;;;5055240;28;20053;-63
2022/05/05 13:42:26;;;;;;;8.63;5.28;;;25.80;64.90;;;;;;5072721;28;20088;-64
2022/05/05 13:44:53;;;;;;;9.05;5.40;;;25.40;65.50;;;;;;5054685;28;20072;-62
2022/05/05 13:47:20;;;;;;;6.38;5.00;;;25.70;65.80;;;;;;5054813;28;20500;-63
2022/05/05 13:49:46;;;;;;;9.60;6.15;;;25.60;66.20;;;;;;5055163;28;20053;-65
2022/05/05 13:52:13;;;;;;;6.70;5.30;;;25.30;66.20;;;;;;5072297;28;20483;-63
2022/05/05 13:54:40;;;;;;;9.95;5.18;;;24.90;66.00;;;;;;5072580;28;20086;-64
2022/05/05 13:57:07;;;;;;;7.13;4.90;;;24.60;66.60;;;;;;5072779;28;20106;-63
2022/05/05 13:59:35;;;;;;;6.72;4.50;;;25.00;66.90;;;;;;5068141;28;20044;-63
2022/05/05 14:02:02;;;;;;;8.70;4.90;;;25.30;66.90;;;;;;5036318;28;20056;-63